Time;durP1;ratioP1;P1;durP2;ratioP2;P2;SDS_P1;SDS_P2;PMS_P1;PMS_P2;Temp;Humidity;BMP_temperature;BMP_pressure;BME280_temperature;BME280_humidity;BME280_pressure;Samples;Min_cycle;Max_cycle;Signal;HPM_P1;HPM_P2
2021/01/27 00:00:31;;;;;;;1.10;0.72;;;;;;;-1.51;91.19;98722.28;1730560;82;21209;-88
2021/01/27 00:03:00;;;;;;;2.20;1.10;;;;;;;-1.52;91.10;98718.04;1730275;82;21256;-85
2021/01/27 00:05:36;;;;;;;3.42;1.10;;;;;;;-1.52;91.40;98720.59;1730132;81;21666;-78
2021/01/27 00:08:04;;;;;;;2.90;1.27;;;;;;;-1.50;91.46;98721.44;1728108;83;21181;-82
2021/01/27 00:10:33;;;;;;;2.45;1.30;;;;;;;-1.51;91.14;98717.16;1722849;81;22464;-78
2021/01/27 00:13:02;;;;;;;5.40;1.17;;;;;;;-1.48;91.21;98714.59;1720173;83;21207;-81
2021/01/27 00:15:34;;;;;;;1.60;0.90;;;;;;;-1.49;91.19;98724.39;1720346;83;21611;-88
2021/01/27 00:18:02;;;;;;;1.55;0.90;;;;;;;-1.50;91.48;98710.75;1720126;83;21135;-87
2021/01/27 00:20:29;;;;;;;4.20;1.67;;;;;;;-1.49;91.27;98717.99;1700176;83;21226;-80
2021/01/27 00:22:58;;;;;;;1.85;0.82;;;;;;;-1.48;91.42;98709.47;1710851;83;21596;-80
2021/01/27 00:25:35;;;;;;;4.50;1.15;;;;;;;-1.48;91.30;98713.30;1710692;83;21722;-77
2021/01/27 00:28:05;;;;;;;1.77;0.90;;;;;;;-1.48;91.50;98713.30;1710753;83;21161;-80
2021/01/27 00:30:38;;;;;;;2.37;0.90;;;;;;;-1.47;91.47;98713.70;1730995;82;21681;-80
2021/01/27 00:33:07;;;;;;;3.22;1.00;;;;;;;-1.45;91.44;98714.53;1741150;82;21614;-78
2021/01/27 00:35:40;;;;;;;1.40;0.88;;;;;;;-1.44;91.44;98713.66;1740690;82;21610;-89
2021/01/27 00:38:12;;;;;;;1.42;0.80;;;;;;;-1.43;91.49;98712.77;1740418;82;21210;-87
2021/01/27 00:40:40;;;;;;;1.42;0.80;;;;;;;-1.44;91.38;98714.50;1740485;82;21194;-79
2021/01/27 00:43:07;;;;;;;2.45;0.90;;;;;;;-1.45;91.28;98711.98;1723646;82;21215;-78
2021/01/27 00:45:34;;;;;;;2.70;1.10;;;;;;;-1.45;91.37;98716.66;1720401;82;21136;-85
2021/01/27 00:48:01;;;;;;;3.12;0.95;;;;;;;-1.44;91.39;98714.94;1719906;82;21132;-89
2021/01/27 00:50:29;;;;;;;2.58;1.05;;;;;;;-1.44;91.40;98711.09;1720308;82;21218;-87
2021/01/27 00:52:56;;;;;;;2.62;0.70;;;;;;;-1.42;91.31;98709.37;1720199;83;21645;-81
2021/01/27 00:55:27;;;;;;;2.02;1.10;;;;;;;-1.44;90.42;98721.34;1720348;82;21199;-78
2021/01/27 00:57:55;;;;;;;2.42;1.10;;;;;;;-1.43;91.22;98720.45;1720154;83;21192;-89
2021/01/27 01:00:35;;;;;;;2.50;1.25;;;;;;;-1.42;91.29;98727.29;1720284;83;21136;-90
2021/01/27 01:03:04;;;;;;;3.52;0.80;;;;;;;-1.41;91.46;98721.29;1709835;83;21254;-78
2021/01/27 01:05:39;;;;;;;5.58;1.07;;;;;;;-1.39;91.47;98722.13;1718807;82;21246;-79
2021/01/27 01:08:09;;;;;;;2.27;1.22;;;;;;;-1.40;91.19;98722.97;1737111;82;21139;-81
2021/01/27 01:10:40;;;;;;;1.40;0.78;;;;;;;-1.40;91.38;98724.25;1737471;82;21155;-83
2021/01/27 01:13:12;;;;;;;1.05;0.68;;;;;;;-1.38;91.25;98721.24;1737440;82;21146;-78
2021/01/27 01:15:39;;;;;;;3.52;1.00;;;;;;;-1.38;91.22;98721.24;1734215;82;21206;-81
2021/01/27 01:18:06;;;;;;;2.52;0.88;;;;;;;-1.40;91.29;98721.28;1708114;83;21174;-84
2021/01/27 01:20:33;;;;;;;2.98;1.20;;;;;;;-1.41;91.30;98722.56;1725905;82;21119;-81
2021/01/27 01:23:01;;;;;;;2.55;0.75;;;;;;;-1.41;90.77;98728.53;1724969;82;21250;-85
2021/01/27 01:25:32;;;;;;;1.85;0.93;;;;;;;-1.42;90.93;98722.17;1708160;84;21165;-78
2021/01/27 01:28:00;;;;;;;1.30;0.90;;;;;;;-1.43;91.07;98731.57;1724837;82;21219;-90
2021/01/27 01:30:32;;;;;;;3.62;0.90;;;;;;;-1.45;90.97;98719.66;1721151;82;21163;-83
2021/01/27 01:33:04;;;;;;;1.40;0.70;;;;;;;-1.48;90.33;98726.11;1706065;84;21211;-78
2021/01/27 01:35:31;;;;;;;5.78;1.07;;;;;;;-1.47;90.03;98741.87;1707577;84;21022;-81
2021/01/27 01:37:58;;;;;;;2.80;0.80;;;;;;;-1.49;90.47;98730.36;1708013;82;21139;-83
2021/01/27 01:40:29;;;;;;;2.92;1.00;;;;;;;-1.49;90.50;98734.63;1708095;84;22147;-87
2021/01/27 01:43:19;;;;;;;3.87;0.82;;;;;;;-1.48;90.95;98737.63;1730253;82;21610;-78
2021/01/27 01:46:00;;;;;;;2.00;0.82;;;;;;;-1.47;90.78;98739.30;1737480;82;21713;-86
2021/01/27 01:48:46;;;;;;;3.55;0.82;;;;;;;-1.48;90.92;98735.91;1736632;82;21262;-79
2021/01/27 01:51:25;;;;;;;0.62;0.60;;;;;;;-1.48;90.99;98735.06;1736013;82;26744;-79
2021/01/27 01:53:57;;;;;;;2.20;1.05;;;;;;;-1.49;90.97;98728.23;1707890;84;21215;-90
2021/01/27 01:56:31;;;;;;;4.85;1.15;;;;;;;-1.47;90.96;98726.50;1708129;82;21218;-83
2021/01/27 01:59:03;;;;;;;1.20;0.65;;;;;;;-1.49;90.52;98733.36;1708103;84;21131;-84
2021/01/27 02:01:29;;;;;;;2.52;1.15;;;;;;;-1.50;90.72;98726.55;1707572;84;21215;-78
2021/01/27 02:03:57;;;;;;;4.20;1.02;;;;;;;-1.49;90.72;98733.36;1715288;82;21195;-92
2021/01/27 02:06:25;;;;;;;3.65;0.60;;;;;;;-1.48;90.93;98724.83;1720038;82;21593;-91
2021/01/27 02:08:58;;;;;;;1.07;0.53;;;;;;;-1.47;91.00;98732.91;1724255;83;21631;-85
2021/01/27 02:11:45;;;;;;;2.12;0.80;;;;;;;-1.46;90.76;98728.19;1701071;83;21254;-83
2021/01/27 02:14:29;;;;;;;3.20;1.25;;;;;;;-1.46;90.67;98724.34;1700040;84;21156;-79
2021/01/27 02:17:17;;;;;;;2.40;0.72;;;;;;;-1.44;90.92;98721.34;1691324;84;21184;-82
2021/01/27 02:20:08;;;;;;;2.52;0.80;;;;;;;-1.43;90.77;98722.61;1725671;83;22103;-87
2021/01/27 02:22:59;;;;;;;4.05;0.98;;;;;;;-1.43;90.86;98732.85;1725548;83;21209;-80
2021/01/27 02:26:18;;;;;;;1.45;0.50;;;;;;;-1.43;90.82;98732.85;1725656;83;21254;-89
2021/01/27 02:29:20;;;;;;;7.60;1.20;;;;;;;-1.44;90.60;98723.90;1729274;82;21631;-84
2021/01/27 02:31:58;;;;;;;1.82;0.72;;;;;;;-1.46;90.23;98728.19;1724082;83;21267;-87
2021/01/27 02:35:00;;;;;;;1.65;0.72;;;;;;;-1.46;90.62;98730.75;1687490;84;22176;-78
2021/01/27 02:38:01;;;;;;;1.05;0.55;;;;;;;-1.47;90.68;98732.91;1688542;84;21194;-89
2021/01/27 02:40:54;;;;;;;1.87;0.70;;;;;;;-1.43;90.66;98724.30;1847324;77;22698;-86
2021/01/27 02:43:37;;;;;;;4.60;0.70;;;;;;;-1.45;90.46;98737.58;1816661;78;21155;-86
2021/01/27 02:46:16;;;;;;;2.60;0.80;;;;;;;-1.47;90.45;98733.75;1816181;79;21453;-83
2021/01/27 02:48:57;;;;;;;2.55;0.80;;;;;;;-1.51;89.01;98737.64;1816752;79;21147;-78
2021/01/27 02:51:48;;;;;;;1.75;0.50;;;;;;;-1.47;90.27;98746.98;1721392;81;21203;-83
2021/01/27 02:54:33;;;;;;;2.25;0.70;;;;;;;-1.50;89.91;98738.91;1700003;83;21195;-80
2021/01/27 02:57:08;;;;;;;1.65;0.80;;;;;;;-1.49;90.13;98746.16;1713045;83;21155;-83
2021/01/27 02:59:54;;;;;;;3.40;0.60;;;;;;;-1.46;89.97;98746.11;1847470;77;22390;-76
2021/01/27 03:02:29;;;;;;;0.50;0.40;;;;;;;-1.49;90.42;98750.00;1816589;79;21120;-77
2021/01/27 03:05:16;;;;;;;3.02;0.80;;;;;;;-1.47;90.57;98751.67;1811273;79;21196;-83
2021/01/27 03:07:48;;;;;;;0.60;0.40;;;;;;;-1.47;90.59;98746.98;1791741;79;21295;-78
2021/01/27 03:10:38;;;;;;;1.42;0.42;;;;;;;-1.48;89.98;98750.43;1802365;78;21131;-86
2021/01/27 03:13:05;;;;;;;1.57;0.55;;;;;;;-1.49;90.31;98741.03;1802874;79;21614;-86
2021/01/27 03:15:32;;;;;;;3.05;0.78;;;;;;;-1.50;90.26;98750.87;1816904;79;21116;-84
2021/01/27 03:18:01;;;;;;;4.00;0.50;;;;;;;-1.54;90.16;98754.33;1786369;78;22548;-80
2021/01/27 03:20:38;;;;;;;1.37;0.57;;;;;;;-1.57;90.12;98748.81;1772546;79;21135;-77
2021/01/27 03:23:17;;;;;;;;;;;;;;;-1.58;90.10;98754.38;1787006;79;21626;-85
2021/01/27 03:25:53;;;;;;;3.80;0.70;;;;;;;-1.60;90.23;98747.17;1783480;80;20324;-81
2021/01/27 03:28:25;;;;;;;1.30;0.70;;;;;;;-1.60;90.35;98745.02;1807134;79;21191;-85
2021/01/27 03:30:53;;;;;;;3.42;0.70;;;;;;;-1.59;90.47;98748.85;1816882;78;22093;-78
2021/01/27 03:33:25;;;;;;;0.85;0.55;;;;;;;-1.59;90.35;98755.25;1805038;78;21170;-78
2021/01/27 03:36:00;;;;;;;1.62;0.60;;;;;;;-1.62;90.37;98756.58;1784527;80;21152;-88
2021/01/27 03:38:42;;;;;;;2.50;0.80;;;;;;;-1.63;90.48;98753.59;1784513;79;21143;-87
2021/01/27 03:41:23;;;;;;;2.40;0.70;;;;;;;-1.62;90.50;98751.90;1784331;79;21142;-88
2021/01/27 03:44:22;;;;;;;2.30;0.55;;;;;;;-1.65;90.37;98751.50;1809192;79;21735;-85
2021/01/27 03:47:09;;;;;;;2.27;0.50;;;;;;;-1.65;90.16;98759.19;1784485;80;21182;-83
2021/01/27 03:49:38;;;;;;;;;;;;;;;-1.67;90.34;98766.03;1792750;79;21131;-85
2021/01/27 03:52:29;;;;;;;1.50;0.60;;;;;;;-1.67;90.30;98765.19;1809056;79;20538;-85
2021/01/27 03:55:13;;;;;;;5.12;1.57;;;;;;;-1.68;90.43;98773.30;1784601;80;21574;-82
2021/01/27 03:57:45;;;;;;;1.30;0.50;;;;;;;-1.68;90.45;98770.75;1726097;83;22183;-78
2021/01/27 04:00:14;;;;;;;1.10;0.62;;;;;;;-1.69;90.17;98771.59;1726364;83;21539;-78
2021/01/27 04:02:42;;;;;;;1.72;0.50;;;;;;;-1.72;90.22;98769.08;1726943;83;21172;-82
2021/01/27 04:05:10;;;;;;;;;;;;;;;-1.73;90.26;98775.07;1737351;81;21227;-78
2021/01/27 04:07:36;;;;;;;3.17;0.60;;;;;;;-1.74;90.38;98774.64;1757939;81;20260;-77
2021/01/27 04:10:06;;;;;;;0.70;0.30;;;;;;;-1.73;90.30;98765.27;1749955;81;21183;-83
2021/01/27 04:12:32;;;;;;;1.27;0.42;;;;;;;-1.73;90.20;98778.91;1727299;83;21659;-78
2021/01/27 04:14:59;;;;;;;0.30;0.30;;;;;;;-1.73;90.29;98778.91;1741206;81;21236;-78
2021/01/27 04:17:29;;;;;;;0.80;0.40;;;;;;;-1.73;90.06;98776.34;1732544;81;21212;-85
2021/01/27 04:19:58;;;;;;;0.85;0.35;;;;;;;-1.73;90.21;98782.75;1736091;81;21223;-87
2021/01/27 04:22:25;;;;;;;3.58;0.50;;;;;;;-1.75;90.01;98781.07;1733990;81;21303;-79
2021/01/27 04:24:52;;;;;;;1.90;0.70;;;;;;;-1.76;90.23;98776.39;1727474;82;21736;-79
2021/01/27 04:27:20;;;;;;;1.80;0.68;;;;;;;-1.77;90.15;98779.80;1752584;81;21200;-77
2021/01/27 04:29:47;;;;;;;3.00;0.75;;;;;;;-1.78;90.01;98785.80;1757539;81;21203;-77
2021/01/27 04:32:14;;;;;;;4.35;0.90;;;;;;;-1.80;90.09;98782.39;1757684;81;21164;-78
2021/01/27 04:34:41;;;;;;;1.90;0.80;;;;;;;-1.81;90.03;98781.56;1770561;80;22316;-86
2021/01/27 04:37:09;;;;;;;2.15;0.40;;;;;;;-1.82;90.27;98772.60;1783896;80;21155;-76
2021/01/27 04:39:35;;;;;;;;;;;;;;;-1.82;90.13;98782.44;1786518;80;21146;-85
2021/01/27 04:42:03;;;;;;;3.37;0.70;;;;;;;-1.80;90.35;98774.72;1786462;79;20412;-80
2021/01/27 04:44:30;;;;;;;3.25;0.60;;;;;;;-1.82;90.17;98780.28;1812822;79;21103;-79
2021/01/27 04:47:14;;;;;;;2.58;0.70;;;;;;;-1.84;90.01;98779.48;1816226;79;21136;-76
2021/01/27 04:49:50;;;;;;;4.65;0.90;;;;;;;-1.85;90.20;98784.16;1808846;79;21142;-90
2021/01/27 04:53:05;;;;;;;2.33;0.88;;;;;;;-1.87;90.22;98779.52;1730882;82;21139;-77
2021/01/27 04:56:04;;;;;;;2.22;0.95;;;;;;;-1.91;90.19;98774.84;1743071;82;21175;-89
2021/01/27 04:58:57;;;;;;;2.12;0.50;;;;;;;-1.94;90.28;98780.44;1632551;86;21214;-83
2021/01/27 05:01:59;;;;;;;3.35;1.07;;;;;;;-1.90;90.26;98782.12;1847260;77;22698;-88
2021/01/27 05:05:01;;;;;;;3.80;1.30;;;;;;;-1.95;90.35;98785.16;1816562;79;21154;-91
2021/01/27 05:07:51;;;;;;;5.85;0.68;;;;;;;-1.97;90.33;98785.59;1790394;79;21194;-78
2021/01/27 05:10:42;;;;;;;1.90;0.68;;;;;;;-2.00;90.49;98781.80;1804415;79;21128;-90
2021/01/27 05:13:34;;;;;;;1.50;0.57;;;;;;;-2.03;90.43;98783.96;1759181;80;21159;-87
2021/01/27 05:16:06;;;;;;;2.08;0.60;;;;;;;-2.06;90.42;98788.67;1755602;80;21223;-82
2021/01/27 05:18:49;;;;;;;2.30;0.62;;;;;;;-2.03;90.49;98780.96;1851551;77;22506;-78
2021/01/27 05:21:42;;;;;;;1.35;0.50;;;;;;;-2.06;90.61;98789.95;1823837;78;21195;-89
2021/01/27 05:24:09;;;;;;;1.62;0.80;;;;;;;-2.07;90.59;98799.78;1785094;80;21159;-91
2021/01/27 05:27:09;;;;;;;1.35;0.62;;;;;;;-2.05;90.56;98795.47;1780728;80;26276;-91
2021/01/27 05:30:06;;;;;;;4.20;0.88;;;;;;;-2.04;90.59;98794.63;1816606;78;21108;-78
2021/01/27 05:32:54;;;;;;;2.98;1.35;;;;;;;-2.05;90.44;98790.36;1815827;79;21604;-85
2021/01/27 05:35:37;;;;;;;1.85;0.68;;;;;;;-2.06;90.32;98801.91;1679922;84;21207;-91
2021/01/27 05:38:31;;;;;;;3.80;0.98;;;;;;;-2.05;90.42;98795.47;1684105;85;21612;-80
2021/01/27 05:41:26;;;;;;;2.80;0.60;;;;;;;-2.07;90.46;98801.06;1686803;84;21247;-79
2021/01/27 05:44:07;;;;;;;2.17;1.10;;;;;;;-2.10;90.47;98789.59;1698905;83;21143;-82
2021/01/27 05:46:37;;;;;;;2.33;1.10;;;;;;;-2.13;90.41;98803.69;1679877;85;21710;-86
2021/01/27 05:49:25;;;;;;;4.35;1.22;;;;;;;-2.14;90.28;98810.92;1679909;85;21243;-80
2021/01/27 05:51:52;;;;;;;3.12;1.10;;;;;;;-2.14;90.27;98817.77;1687859;85;21381;-82
2021/01/27 05:54:25;;;;;;;1.17;0.80;;;;;;;-2.17;90.40;98809.69;1689161;85;21230;-80
2021/01/27 05:56:55;;;;;;;2.12;1.17;;;;;;;-2.22;90.32;98812.72;1687577;85;21147;-79
2021/01/27 05:59:25;;;;;;;5.17;1.32;;;;;;;-2.25;90.43;98815.31;1686037;85;21618;-87
2021/01/27 06:02:05;;;;;;;1.87;0.88;;;;;;;-2.30;90.42;98814.50;1688997;85;21171;-83
2021/01/27 06:04:35;;;;;;;2.72;1.00;;;;;;;-2.34;90.42;98823.08;1686034;85;21217;-83
2021/01/27 06:07:27;;;;;;;4.97;1.05;;;;;;;-2.35;90.52;98818.81;1851941;77;22415;-77
2021/01/27 06:09:55;;;;;;;2.77;1.02;;;;;;;-2.40;90.60;98828.26;1792208;80;21194;-85
2021/01/27 06:12:30;;;;;;;3.80;1.20;;;;;;;-2.42;90.61;98827.42;1761860;80;21117;-89
2021/01/27 06:15:14;;;;;;;4.62;1.40;;;;;;;-2.42;90.70;98832.53;1801720;78;21072;-78
2021/01/27 06:17:45;;;;;;;5.67;1.62;;;;;;;-2.42;90.74;98826.14;1792164;80;21552;-77
2021/01/27 06:20:29;;;;;;;1.98;0.80;;;;;;;-2.40;90.71;98838.48;1794911;77;21166;-83
2021/01/27 06:23:11;;;;;;;2.62;1.12;;;;;;;-2.39;90.75;98828.66;1790433;80;21127;-83
2021/01/27 06:26:26;;;;;;;3.77;1.27;;;;;;;-2.36;90.79;98837.58;1764270;80;21228;-85
2021/01/27 06:29:22;;;;;;;2.12;1.12;;;;;;;-2.35;90.68;98840.14;1750038;81;21159;-86
2021/01/27 06:32:17;;;;;;;2.70;1.22;;;;;;;-2.40;90.56;98836.77;1757788;81;21170;-77
2021/01/27 06:35:10;;;;;;;3.15;1.60;;;;;;;-2.42;90.65;98837.64;1762560;81;21151;-84
2021/01/27 06:38:09;;;;;;;2.70;1.45;;;;;;;-2.47;90.58;98835.95;1742907;80;21167;-88
2021/01/27 06:41:10;;;;;;;3.92;1.62;;;;;;;-2.52;90.58;98835.17;1733000;82;21205;-79
2021/01/27 06:43:42;;;;;;;3.25;1.70;;;;;;;-2.57;90.59;98836.92;1747692;81;21173;-77
2021/01/27 06:46:40;;;;;;;4.10;2.00;;;;;;;-2.63;90.62;98831.87;1742320;80;21193;-79
2021/01/27 06:49:36;;;;;;;5.08;2.42;;;;;;;-2.67;90.64;98837.84;1733228;82;21139;-86
2021/01/27 06:52:37;;;;;;;9.50;4.22;;;;;;;-2.70;90.74;98837.88;1750958;81;21199;-81
2021/01/27 06:55:43;;;;;;;6.90;3.10;;;;;;;-2.71;90.76;98843.85;1750926;81;21216;-85
2021/01/27 06:58:38;;;;;;;6.40;3.15;;;;;;;-2.73;90.77;98839.17;1772297;78;21204;-80
2021/01/27 07:01:28;;;;;;;8.98;4.85;;;;;;;-2.75;90.78;98847.28;1777555;79;21638;-77
2021/01/27 07:04:24;;;;;;;4.97;4.03;;;;;;;-2.75;90.77;98852.39;1758707;80;21193;-83
2021/01/27 07:07:36;;;;;;;4.60;3.20;;;;;;;-2.78;90.74;98846.03;1747402;79;21201;-78
2021/01/27 07:10:24;;;;;;;5.33;2.60;;;;;;;-2.78;90.74;98852.41;1755062;80;21275;-77
2021/01/27 07:13:22;;;;;;;3.83;2.47;;;;;;;-2.80;90.76;98852.44;1761143;80;21180;-77
2021/01/27 07:16:09;;;;;;;7.67;2.70;;;;;;;-2.78;90.86;98850.70;1695913;83;22012;-77
2021/01/27 07:19:00;;;;;;;4.78;2.55;;;;;;;-2.73;91.02;98845.56;1676155;84;21794;-75
2021/01/27 07:21:53;;;;;;;7.50;2.87;;;;;;;-2.63;91.16;98844.64;1672550;84;21183;-76
2021/01/27 07:24:51;;;;;;;4.92;2.40;;;;;;;-2.44;91.22;98849.58;1813495;77;23288;-76
2021/01/27 07:27:22;;;;;;;3.70;2.02;;;;;;;-2.40;91.22;98849.55;1774645;78;21187;-75
2021/01/27 07:29:54;;;;;;;5.50;2.27;;;;;;;-2.29;91.20;98852.02;1741060;81;21284;-75
2021/01/27 07:32:35;;;;;;;3.27;1.40;;;;;;;-2.21;91.16;98850.23;1727420;81;21198;-74
2021/01/27 07:35:10;;;;;;;4.55;1.30;;;;;;;-2.10;91.21;98848.42;1728792;83;21592;-75
2021/01/27 07:38:00;;;;;;;3.10;1.40;;;;;;;-1.99;91.25;98852.55;1727255;81;21211;-76
2021/01/27 07:40:49;;;;;;;3.35;1.50;;;;;;;-1.83;91.24;98859.20;1713883;83;21217;-76
2021/01/27 07:43:53;;;;;;;4.97;1.50;;;;;;;-1.69;91.20;98859.89;1725734;81;22165;-77
2021/01/27 07:46:30;;;;;;;1.25;0.98;;;;;;;-1.56;90.96;98864.89;1719369;81;21218;-76
2021/01/27 07:49:03;;;;;;;;;;;;;;;-1.46;90.94;98865.16;1725924;81;21178;-75
2021/01/27 07:51:38;;;;;;;3.08;1.17;;;;;;;-1.39;90.86;98855.27;1729709;83;20230;-77
2021/01/27 07:54:13;;;;;;;4.20;1.55;;;;;;;-1.35;90.90;98859.48;1700980;83;21190;-75
2021/01/27 07:57:03;;;;;;;2.98;1.45;;;;;;;-1.33;90.75;98857.75;1707016;83;21213;-78
2021/01/27 07:59:53;;;;;;;5.22;1.30;;;;;;;-1.25;90.97;98853.38;1703024;83;21165;-77
2021/01/27 08:02:31;;;;;;;3.77;1.55;;;;;;;-1.16;91.05;98860.92;1708044;81;21115;-78
2021/01/27 08:05:03;;;;;;;3.08;1.60;;;;;;;-1.12;90.82;98865.59;1750152;81;21179;-78
2021/01/27 08:07:43;;;;;;;3.90;2.42;;;;;;;-1.11;90.75;98860.03;1716926;83;21186;-86
2021/01/27 08:10:27;;;;;;;4.03;1.77;;;;;;;-1.08;90.67;98865.95;1712419;82;21218;-80
2021/01/27 08:12:59;;;;;;;3.40;1.50;;;;;;;-1.08;90.62;98862.11;1704870;83;21139;-80
2021/01/27 08:15:31;;;;;;;4.35;1.42;;;;;;;-1.03;90.52;98860.77;1707880;83;21245;-78
2021/01/27 08:18:08;;;;;;;5.12;1.45;;;;;;;-0.98;90.82;98864.96;1700410;84;21503;-77
2021/01/27 08:20:39;;;;;;;4.10;1.12;;;;;;;-0.93;90.20;98861.88;1719690;83;26566;-77
2021/01/27 08:23:36;;;;;;;3.92;1.30;;;;;;;-0.93;90.49;98864.87;1736076;81;22317;-78
2021/01/27 08:26:06;;;;;;;3.70;1.32;;;;;;;-0.92;90.41;98861.47;1708938;81;21175;-77
2021/01/27 08:28:41;;;;;;;3.10;1.15;;;;;;;-0.81;90.55;98876.66;1706902;83;21150;-77
2021/01/27 08:31:15;;;;;;;4.53;1.40;;;;;;;-0.75;90.61;98868.91;1728602;83;21158;-77
2021/01/27 08:33:53;;;;;;;4.33;1.32;;;;;;;-0.60;90.72;98878.06;1723736;83;21681;-80
2021/01/27 08:36:32;;;;;;;;;;;;;;;-0.46;90.33;98869.71;1702487;84;21210;-78
2021/01/27 08:39:10;;;;;;;2.83;1.15;;;;;;;-0.39;90.37;98867.47;1749929;81;20225;-88
2021/01/27 08:42:02;;;;;;;10.68;1.37;;;;;;;-0.29;90.58;98874.12;1749332;82;21184;-87
2021/01/27 08:44:40;;;;;;;3.35;1.52;;;;;;;-0.21;90.48;98883.42;1722983;81;21184;-83
2021/01/27 08:47:35;;;;;;;3.45;1.02;;;;;;;-0.14;90.20;98878.58;1720382;83;21171;-85
2021/01/27 08:50:10;;;;;;;4.45;1.10;;;;;;;-0.13;89.22;98886.70;1695569;81;21597;-80
2021/01/27 08:52:41;;;;;;;2.00;0.98;;;;;;;-0.10;89.91;98886.64;1739676;80;21571;-77
2021/01/27 08:55:37;;;;;;;1.50;0.80;;;;;;;-0.06;90.05;98889.11;1680520;83;21669;-78
2021/01/27 08:58:37;;;;;;;3.70;1.07;;;;;;;-0.07;89.80;98889.16;1687192;84;21200;-79
2021/01/27 09:01:30;;;;;;;2.17;0.90;;;;;;;-0.07;89.71;98891.72;1643224;85;21670;-78
2021/01/27 09:04:00;;;;;;;1.42;0.90;;;;;;;-0.06;89.90;98890.83;1648339;84;22435;-82
2021/01/27 09:06:41;;;;;;;3.98;1.07;;;;;;;-0.07;89.55;98896.85;1667463;83;21706;-79
2021/01/27 09:09:12;;;;;;;2.17;0.88;;;;;;;-0.09;89.26;98902.44;1687515;83;21234;-78
2021/01/27 09:11:40;;;;;;;3.45;1.17;;;;;;;-0.08;89.43;98899.86;1694434;83;21257;-80
2021/01/27 09:14:11;;;;;;;2.55;0.98;;;;;;;0.01;89.71;98905.27;1709718;83;21618;-77
2021/01/27 09:16:40;;;;;;;2.02;1.10;;;;;;;0.03;89.65;98899.68;1720249;83;21273;-84
2021/01/27 09:19:23;;;;;;;2.83;0.90;;;;;;;0.02;89.53;98905.66;1690295;83;21275;-79
2021/01/27 09:22:14;;;;;;;3.22;1.12;;;;;;;0.12;89.42;98902.07;1841723;77;22083;-84
2021/01/27 09:24:45;;;;;;;3.72;1.27;;;;;;;0.08;89.60;98895.28;1808528;78;21194;-88
2021/01/27 09:27:24;;;;;;;2.20;0.90;;;;;;;0.20;89.60;98905.34;1807235;78;21104;-87
2021/01/27 09:29:56;;;;;;;2.60;1.12;;;;;;;0.24;89.52;98904.00;1790857;80;21125;-85
2021/01/27 09:32:24;;;;;;;2.62;1.40;;;;;;;0.23;89.39;98906.17;1798210;78;21555;-82
2021/01/27 09:34:53;;;;;;;5.05;1.72;;;;;;;0.30;89.22;98906.01;1807607;78;21047;-79
2021/01/27 09:37:29;;;;;;;1.40;0.90;;;;;;;0.44;89.74;98907.03;1794337;78;21158;-86
2021/01/27 09:40:16;;;;;;;3.35;1.17;;;;;;;0.47;89.14;98912.11;1803212;78;21180;-87
2021/01/27 09:42:58;;;;;;;2.00;1.05;;;;;;;0.47;88.33;98909.53;1814005;78;22070;-79
2021/01/27 09:45:29;;;;;;;5.03;1.30;;;;;;;0.38;88.91;98909.72;1775641;79;21183;-85
2021/01/27 09:47:58;;;;;;;2.33;0.78;;;;;;;0.29;88.54;98915.04;1762345;80;21202;-94
2021/01/27 09:50:27;;;;;;;2.55;1.07;;;;;;;0.33;88.55;98916.66;1771639;80;21033;-92
2021/01/27 09:53:00;;;;;;;4.85;1.45;;;;;;;0.38;89.13;98914.86;1761472;81;21143;-87
2021/01/27 09:55:28;;;;;;;2.72;0.78;;;;;;;0.43;89.10;98915.62;1762011;81;21159;-83
2021/01/27 09:57:56;;;;;;;2.20;1.00;;;;;;;0.43;88.80;98928.47;1760827;79;21160;-88
2021/01/27 10:00:36;;;;;;;5.47;1.10;;;;;;;0.46;88.71;98920.70;1769627;79;21686;-85
2021/01/27 10:03:29;;;;;;;1.37;0.98;;;;;;;0.55;89.25;98924.36;1775276;80;21595;-79
2021/01/27 10:06:00;;;;;;;2.55;0.98;;;;;;;0.62;88.78;98922.09;1771937;80;21131;-81
2021/01/27 10:08:34;;;;;;;2.22;0.70;;;;;;;0.68;88.28;98924.14;1767576;80;21144;-91
2021/01/27 10:11:12;;;;;;;2.80;1.10;;;;;;;0.78;88.75;98936.75;1762670;79;21161;-81
2021/01/27 10:13:41;;;;;;;;;;;;;;;0.82;88.32;98934.98;1768939;79;21456;-80
2021/01/27 10:16:13;;;;;;;2.92;1.00;;;;;;;0.90;88.81;98936.96;1759962;80;20491;-94
2021/01/27 10:18:43;;;;;;;2.98;1.10;;;;;;;0.99;88.74;98935.48;1761666;81;21159;-88
2021/01/27 10:21:16;;;;;;;2.45;1.30;;;;;;;1.18;89.10;98933.81;1761107;81;21195;-93
2021/01/27 10:23:47;;;;;;;3.95;1.00;;;;;;;1.32;88.55;98933.06;1762016;80;21670;-94
2021/01/27 10:26:40;;;;;;;3.05;0.90;;;;;;;1.38;88.43;98939.34;1789254;79;21269;-86
2021/01/27 10:29:27;;;;;;;2.42;1.20;;;;;;;1.48;88.23;98938.23;1772371;80;21228;-83
2021/01/27 10:31:56;;;;;;;3.02;0.98;;;;;;;1.55;87.72;98938.52;1780228;80;21163;-84
2021/01/27 10:34:41;;;;;;;1.87;0.85;;;;;;;1.75;88.19;98946.21;1760682;81;21165;-88
2021/01/27 10:37:40;;;;;;;3.12;0.95;;;;;;;2.05;88.78;98934.77;1727258;82;21228;-82
2021/01/27 10:40:28;;;;;;;1.65;0.70;;;;;;;2.28;88.95;98940.61;1729790;82;21206;-90
2021/01/27 10:43:03;;;;;;;3.05;1.10;;;;;;;2.39;88.17;98944.59;1729862;82;21157;-90
2021/01/27 10:45:39;;;;;;;2.47;1.10;;;;;;;2.57;87.67;98946.27;1724356;82;21184;-87
2021/01/27 10:48:14;;;;;;;2.30;0.90;;;;;;;2.69;88.02;98947.23;1715679;82;21215;-78
2021/01/27 10:50:45;;;;;;;2.85;1.00;;;;;;;2.95;88.26;98938.76;1735180;82;21224;-85
2021/01/27 10:53:15;;;;;;;1.92;1.10;;;;;;;3.00;87.83;98942.51;1738714;82;21402;-84
2021/01/27 10:55:47;;;;;;;2.60;1.00;;;;;;;2.99;85.03;98936.92;1734248;82;21266;-82
2021/01/27 10:58:17;;;;;;;2.17;1.02;;;;;;;2.73;86.72;98937.67;1729166;81;21626;-81
2021/01/27 11:00:45;;;;;;;2.22;0.95;;;;;;;2.60;85.24;98948.31;1742395;81;21162;-80
2021/01/27 11:03:14;;;;;;;1.90;0.80;;;;;;;2.20;85.16;98940.80;1728033;81;21556;-80
2021/01/27 11:05:50;;;;;;;3.40;0.88;;;;;;;1.91;85.56;98943.67;1737929;81;21289;-80
2021/01/27 11:08:27;;;;;;;3.90;0.98;;;;;;;1.86;86.43;98937.78;1705874;83;21232;-84
2021/01/27 11:11:05;;;;;;;3.25;1.12;;;;;;;1.76;86.29;98950.47;1850171;77;22697;-86
2021/01/27 11:13:35;;;;;;;3.70;1.47;;;;;;;1.70;86.85;98948.05;1814764;77;21568;-80
2021/01/27 11:16:08;;;;;;;2.75;1.15;;;;;;;1.71;86.77;98949.72;1837032;77;22047;-84
2021/01/27 11:18:37;;;;;;;3.27;1.30;;;;;;;1.74;86.90;98950.97;1833396;77;21571;-83
2021/01/27 11:21:07;;;;;;;2.87;0.93;;;;;;;1.77;87.04;98944.45;1807015;78;21208;-84
2021/01/27 11:23:34;;;;;;;0.82;0.50;;;;;;;1.96;87.42;98945.70;1795448;77;21095;-82
2021/01/27 11:26:01;;;;;;;2.10;0.65;;;;;;;1.95;84.98;98943.15;1837685;77;21133;-83
2021/01/27 11:28:28;;;;;;;3.15;0.72;;;;;;;1.91;86.12;98944.96;1822975;77;21172;-85
2021/01/27 11:30:57;;;;;;;1.62;0.68;;;;;;;1.99;85.62;98948.20;1837070;77;21161;-83
2021/01/27 11:33:25;;;;;;;0.57;0.45;;;;;;;2.04;85.50;98949.80;1815796;78;21139;-84
2021/01/27 11:35:53;;;;;;;1.17;0.50;;;;;;;2.14;84.69;98951.27;1814540;78;21159;-87
2021/01/27 11:38:23;;;;;;;1.05;0.55;;;;;;;2.08;83.57;98961.73;1807848;78;21538;-80
2021/01/27 11:40:51;;;;;;;1.85;0.82;;;;;;;2.13;84.60;98962.43;1843121;77;22202;-80
2021/01/27 11:43:21;;;;;;;1.50;0.42;;;;;;;2.01;84.31;98959.28;1774143;80;21192;-81
2021/01/27 11:45:49;;;;;;;1.62;0.60;;;;;;;2.10;85.28;98963.80;1748779;81;21175;-80
2021/01/27 11:48:16;;;;;;;0.88;0.45;;;;;;;2.20;85.62;98973.00;1754511;80;21157;-80
2021/01/27 11:50:43;;;;;;;0.72;0.45;;;;;;;2.21;85.67;98959.22;1776133;80;21701;-80
2021/01/27 11:53:11;;;;;;;3.08;0.70;;;;;;;2.15;84.83;98976.12;1761134;79;22154;-80
2021/01/27 11:55:39;;;;;;;1.00;0.55;;;;;;;1.88;83.12;98975.94;1776960;79;21154;-85
2021/01/27 11:58:06;;;;;;;1.98;0.82;;;;;;;1.82;84.67;98976.08;1756356;81;21206;-81
2021/01/27 12:00:33;;;;;;;1.85;0.90;;;;;;;1.79;84.84;98971.85;1752231;80;21206;-79
2021/01/27 12:03:03;;;;;;;4.65;1.00;;;;;;;1.66;85.68;98976.03;1764323;81;21163;-79
2021/01/27 12:05:33;;;;;;;3.05;1.40;;;;;;;1.63;85.35;98982.53;1768183;80;21145;-79
2021/01/27 12:08:00;;;;;;;2.70;1.40;;;;;;;1.43;84.88;98978.69;1772616;80;21183;-78
2021/01/27 12:10:28;;;;;;;3.92;1.75;;;;;;;1.45;86.04;98984.62;1750280;81;21184;-84
2021/01/27 12:12:55;;;;;;;2.30;0.88;;;;;;;1.38;84.47;98977.94;1762744;80;21194;-83
2021/01/27 12:15:23;;;;;;;;;;;;;;;1.29;84.56;98983.28;1768760;80;21163;-86
2021/01/27 12:17:51;;;;;;;2.35;0.90;;;;;;;1.23;84.08;98983.39;1768672;80;21201;-82
2021/01/27 12:20:19;;;;;;;2.90;1.35;;;;;;;1.37;85.26;98978.79;1770507;79;21321;-84
2021/01/27 12:22:46;;;;;;;1.30;0.78;;;;;;;1.43;85.77;98974.83;1738491;80;21135;-88
2021/01/27 12:25:14;;;;;;;2.22;1.02;;;;;;;1.51;85.94;98976.79;1762963;80;21245;-80